sensor_id;sensor_type;location;lat;lon;timestamp;pressure;altitude;pressure_sealevel;temperature;humidity
27643;BME280;15053;48.618;10.024;2022-11-20T00:01:18;93645.31;;;5.49;92.81
27643;BME280;15053;48.618;10.024;2022-11-20T00:03:46;93643.75;;;5.48;92.83
27643;BME280;15053;48.618;10.024;2022-11-20T00:06:16;93656.69;;;5.48;92.52
27643;BME280;15053;48.618;10.024;2022-11-20T00:08:43;93647.91;;;5.49;92.54
27643;BME280;15053;48.618;10.024;2022-11-20T00:11:15;93651.00;;;5.46;92.83
27643;BME280;15053;48.618;10.024;2022-11-20T00:13:43;93650.72;;;5.48;93.17
27643;BME280;15053;48.618;10.024;2022-11-20T00:16:11;93649.19;;;5.47;91.98
27643;BME280;15053;48.618;10.024;2022-11-20T00:18:38;93651.50;;;5.48;92.90
27643;BME280;15053;48.618;10.024;2022-11-20T00:21:11;93645.84;;;5.46;92.11
27643;BME280;15053;48.618;10.024;2022-11-20T00:23:39;93646.88;;;5.45;92.30
27643;BME280;15053;48.618;10.024;2022-11-20T00:26:07;93661.88;;;5.43;92.50
27643;BME280;15053;48.618;10.024;2022-11-20T00:28:34;93650.00;;;5.42;92.18
27643;BME280;15053;48.618;10.024;2022-11-20T00:31:14;93658.03;;;5.41;91.54
27643;BME280;15053;48.618;10.024;2022-11-20T00:33:41;93654.19;;;5.38;90.98
27643;BME280;15053;48.618;10.024;2022-11-20T00:36:20;93663.72;;;5.38;91.60
27643;BME280;15053;48.618;10.024;2022-11-20T00:38:51;93665.81;;;5.35;92.31
27643;BME280;15053;48.618;10.024;2022-11-20T00:41:18;93672.50;;;5.36;91.81
27643;BME280;15053;48.618;10.024;2022-11-20T00:43:44;93662.50;;;5.30;91.38
27643;BME280;15053;48.618;10.024;2022-11-20T00:46:19;93663.75;;;5.32;91.59
27643;BME280;15053;48.618;10.024;2022-11-20T00:48:47;93667.66;;;5.30;91.61
27643;BME280;15053;48.618;10.024;2022-11-20T00:51:16;93669.72;;;5.28;90.76
27643;BME280;15053;48.618;10.024;2022-11-20T00:53:43;93673.09;;;5.23;90.95
27643;BME280;15053;48.618;10.024;2022-11-20T00:56:12;93674.66;;;5.19;90.99
27643;BME280;15053;48.618;10.024;2022-11-20T00:58:40;93676.50;;;5.19;91.10
27643;BME280;15053;48.618;10.024;2022-11-20T01:01:09;93678.06;;;5.15;91.11
27643;BME280;15053;48.618;10.024;2022-11-20T01:03:42;93684.81;;;5.11;91.63
27643;BME280;15053;48.618;10.024;2022-11-20T01:06:12;93677.06;;;5.06;91.61
27643;BME280;15053;48.618;10.024;2022-11-20T01:08:40;93681.72;;;5.04;92.09
27643;BME280;15053;48.618;10.024;2022-11-20T01:11:12;93685.34;;;5.03;91.41
27643;BME280;15053;48.618;10.024;2022-11-20T01:13:39;93693.06;;;5.03;91.23
27643;BME280;15053;48.618;10.024;2022-11-20T01:16:16;93693.63;;;5.00;91.65
27643;BME280;15053;48.618;10.024;2022-11-20T01:18:46;93685.34;;;4.98;91.88
27643;BME280;15053;48.618;10.024;2022-11-20T01:21:15;93700.63;;;4.94;92.16
27643;BME280;15053;48.618;10.024;2022-11-20T01:23:43;93690.06;;;4.91;92.20
27643;BME280;15053;48.618;10.024;2022-11-20T01:26:21;93698.81;;;4.90;91.73
27643;BME280;15053;48.618;10.024;2022-11-20T01:28:49;93694.19;;;4.87;91.67
27643;BME280;15053;48.618;10.024;2022-11-20T01:33:54;93699.34;;;4.87;91.56
27643;BME280;15053;48.618;10.024;2022-11-20T01:36:23;93702.97;;;4.86;91.66
27643;BME280;15053;48.618;10.024;2022-11-20T01:38:56;93693.19;;;4.83;91.89
27643;BME280;15053;48.618;10.024;2022-11-20T01:41:24;93700.66;;;4.79;91.03
27643;BME280;15053;48.618;10.024;2022-11-20T01:44:10;93699.38;;;4.82;91.75
27643;BME280;15053;48.618;10.024;2022-11-20T01:46:50;93699.41;;;4.76;91.45
27643;BME280;15053;48.618;10.024;2022-11-20T01:49:28;93702.47;;;4.78;91.99
27643;BME280;15053;48.618;10.024;2022-11-20T01:51:59;93699.91;;;4.78;91.74
27643;BME280;15053;48.618;10.024;2022-11-20T01:54:33;93700.16;;;4.77;91.71
27643;BME280;15053;48.618;10.024;2022-11-20T01:57:02;93698.38;;;4.72;91.36
27643;BME280;15053;48.618;10.024;2022-11-20T01:59:31;93699.13;;;4.73;91.81
27643;BME280;15053;48.618;10.024;2022-11-20T02:01:58;93695.03;;;4.72;92.25
27643;BME280;15053;48.618;10.024;2022-11-20T02:04:24;93696.84;;;4.71;91.80
27643;BME280;15053;48.618;10.024;2022-11-20T02:07:10;93691.44;;;4.68;91.00
27643;BME280;15053;48.618;10.024;2022-11-20T02:09:37;93688.63;;;4.59;91.47
27643;BME280;15053;48.618;10.024;2022-11-20T02:12:03;93695.81;;;4.67;91.73
27643;BME280;15053;48.618;10.024;2022-11-20T02:14:30;93700.97;;;4.67;90.61
27643;BME280;15053;48.618;10.024;2022-11-20T02:16:57;93702.03;;;4.66;90.98
27643;BME280;15053;48.618;10.024;2022-11-20T02:19:28;93706.66;;;4.64;91.35
27643;BME280;15053;48.618;10.024;2022-11-20T02:22:07;93709.00;;;4.61;91.40
27643;BME280;15053;48.618;10.024;2022-11-20T02:24:36;93703.31;;;4.59;90.99
27643;BME280;15053;48.618;10.024;2022-11-20T02:27:06;93709.75;;;4.56;91.41
27643;BME280;15053;48.618;10.024;2022-11-20T02:29:38;93707.47;;;4.55;91.00
27643;BME280;15053;48.618;10.024;2022-11-20T02:32:06;93702.06;;;4.51;90.17
27643;BME280;15053;48.618;10.024;2022-11-20T02:34:32;93703.63;;;4.47;89.86
27643;BME280;15053;48.618;10.024;2022-11-20T02:36:59;93700.28;;;4.42;89.97
27643;BME280;15053;48.618;10.024;2022-11-20T02:39:27;93705.19;;;4.38;90.61
27643;BME280;15053;48.618;10.024;2022-11-20T02:41:55;93704.94;;;4.35;89.94
27643;BME280;15053;48.618;10.024;2022-11-20T02:44:22;93701.84;;;4.33;89.92
27643;BME280;15053;48.618;10.024;2022-11-20T02:46:48;93702.38;;;4.30;90.39
27643;BME280;15053;48.618;10.024;2022-11-20T02:49:15;93709.31;;;4.29;89.91
27643;BME280;15053;48.618;10.024;2022-11-20T02:51:43;93710.09;;;4.30;90.58
27643;BME280;15053;48.618;10.024;2022-11-20T02:54:10;93702.63;;;4.28;89.95
27643;BME280;15053;48.618;10.024;2022-11-20T02:56:38;93699.53;;;4.21;90.66
27643;BME280;15053;48.618;10.024;2022-11-20T02:59:04;93702.63;;;4.23;90.50
27643;BME280;15053;48.618;10.024;2022-11-20T03:01:31;93704.47;;;4.23;89.66
27643;BME280;15053;48.618;10.024;2022-11-20T03:03:58;93712.19;;;4.23;90.20
27643;BME280;15053;48.618;10.024;2022-11-20T03:06:24;93703.69;;;4.22;90.35
27643;BME280;15053;48.618;10.024;2022-11-20T03:08:51;93706.25;;;4.22;90.24
27643;BME280;15053;48.618;10.024;2022-11-20T03:11:17;93698.25;;;4.18;90.37
27643;BME280;15053;48.618;10.024;2022-11-20T03:13:44;93702.91;;;4.22;90.53
27643;BME280;15053;48.618;10.024;2022-11-20T03:16:13;93694.91;;;4.18;90.35
27643;BME280;15053;48.618;10.024;2022-11-20T03:18:41;93696.47;;;4.19;90.17
27643;BME280;15053;48.618;10.024;2022-11-20T03:21:09;93700.06;;;4.18;90.82
27643;BME280;15053;48.618;10.024;2022-11-20T03:23:36;93705.75;;;4.20;90.44
27643;BME280;15053;48.618;10.024;2022-11-20T03:26:24;93702.13;;;4.21;90.37
27643;BME280;15053;48.618;10.024;2022-11-20T03:28:59;93700.03;;;4.23;91.05
27643;BME280;15053;48.618;10.024;2022-11-20T03:31:28;93697.75;;;4.22;90.89
27643;BME280;15053;48.618;10.024;2022-11-20T03:33:56;93697.50;;;4.28;90.35
27643;BME280;15053;48.618;10.024;2022-11-20T03:36:24;93705.72;;;4.30;91.14
27643;BME280;15053;48.618;10.024;2022-11-20T03:38:52;93692.31;;;4.33;91.00
27643;BME280;15053;48.618;10.024;2022-11-20T03:41:20;93693.84;;;4.34;90.58
27643;BME280;15053;48.618;10.024;2022-11-20T03:43:49;93689.75;;;4.33;90.12
27643;BME280;15053;48.618;10.024;2022-11-20T03:46:15;93688.19;;;4.32;90.54
27643;BME280;15053;48.618;10.024;2022-11-20T03:48:42;93691.53;;;4.33;90.33
27643;BME280;15053;48.618;10.024;2022-11-20T03:51:26;93682.78;;;4.34;90.09
27643;BME280;15053;48.618;10.024;2022-11-20T03:53:56;93690.53;;;4.34;89.96
27643;BME280;15053;48.618;10.024;2022-11-20T03:56:30;93692.56;;;4.32;90.15
27643;BME280;15053;48.618;10.024;2022-11-20T03:58:57;93694.63;;;4.30;89.67
27643;BME280;15053;48.618;10.024;2022-11-20T04:01:31;93697.50;;;4.28;89.68
27643;BME280;15053;48.618;10.024;2022-11-20T04:03:58;93686.91;;;4.25;89.91
27643;BME280;15053;48.618;10.024;2022-11-20T04:06:27;93693.63;;;4.26;90.04
27643;BME280;15053;48.618;10.024;2022-11-20T04:08:55;93700.03;;;4.23;89.80
27643;BME280;15053;48.618;10.024;2022-11-20T04:11:24;93696.19;;;4.21;89.78
27643;BME280;15053;48.618;10.024;2022-11-20T04:13:53;93693.09;;;4.18;89.97
27643;BME280;15053;48.618;10.024;2022-11-20T04:16:22;93694.91;;;4.18;89.85
27643;BME280;15053;48.618;10.024;2022-11-20T04:18:56;93693.63;;;4.15;89.63
27643;BME280;15053;48.618;10.024;2022-11-20T04:21:23;93691.31;;;4.14;90.53
27643;BME280;15053;48.618;10.024;2022-11-20T04:23:50;93685.13;;;4.15;90.48
27643;BME280;15053;48.618;10.024;2022-11-20T04:26:20;93682.53;;;4.15;90.34
27643;BME280;15053;48.618;10.024;2022-11-20T04:28:46;93686.16;;;4.14;90.65
27643;BME280;15053;48.618;10.024;2022-11-20T04:31:15;93685.13;;;4.10;90.44
27643;BME280;15053;48.618;10.024;2022-11-20T04:33:42;93676.13;;;4.07;90.92
27643;BME280;15053;48.618;10.024;2022-11-20T04:36:21;93679.19;;;4.09;90.13
27643;BME280;15053;48.618;10.024;2022-11-20T04:38:52;93679.19;;;4.09;90.05
27643;BME280;15053;48.618;10.024;2022-11-20T04:41:29;93676.91;;;4.08;90.33
27643;BME280;15053;48.618;10.024;2022-11-20T04:44:00;93682.06;;;4.08;90.29
27643;BME280;15053;48.618;10.024;2022-11-20T04:46:31;93676.91;;;4.03;90.87
27643;BME280;15053;48.618;10.024;2022-11-20T04:48:58;93679.22;;;3.99;90.53
27643;BME280;15053;48.618;10.024;2022-11-20T04:51:25;93674.06;;;3.99;90.67
27643;BME280;15053;48.618;10.024;2022-11-20T04:53:52;93680.53;;;3.97;90.47
27643;BME280;15053;48.618;10.024;2022-11-20T04:56:19;93681.53;;;3.96;90.69
27643;BME280;15053;48.618;10.024;2022-11-20T04:58:45;93680.53;;;3.92;90.33
27643;BME280;15053;48.618;10.024;2022-11-20T05:01:14;93691.84;;;3.91;89.99
27643;BME280;15053;48.618;10.024;2022-11-20T05:03:42;93691.84;;;3.91;90.25
27643;BME280;15053;48.618;10.024;2022-11-20T05:06:11;93695.47;;;3.90;90.81
27643;BME280;15053;48.618;10.024;2022-11-20T05:08:38;93690.34;;;3.90;90.08
27643;BME280;15053;48.618;10.024;2022-11-20T05:11:07;93688.78;;;3.89;90.70
27643;BME280;15053;48.618;10.024;2022-11-20T05:13:34;93685.19;;;3.90;90.98
27643;BME280;15053;48.618;10.024;2022-11-20T05:16:06;93680.53;;;3.87;91.29
27643;BME280;15053;48.618;10.024;2022-11-20T05:18:34;93684.13;;;3.91;91.12
27643;BME280;15053;48.618;10.024;2022-11-20T05:21:01;93681.81;;;3.94;91.39
27643;BME280;15053;48.618;10.024;2022-11-20T05:23:29;93684.13;;;3.96;91.43
27643;BME280;15053;48.618;10.024;2022-11-20T05:25:56;93682.06;;;3.98;91.10
27643;BME280;15053;48.618;10.024;2022-11-20T05:28:26;93680.25;;;3.98;90.89
27643;BME280;15053;48.618;10.024;2022-11-20T05:30:53;93676.94;;;3.98;90.92
27643;BME280;15053;48.618;10.024;2022-11-20T05:33:20;93678.97;;;3.96;90.94
27643;BME280;15053;48.618;10.024;2022-11-20T05:35:48;93679.47;;;3.93;90.99
27643;BME280;15053;48.618;10.024;2022-11-20T05:38:15;93678.47;;;3.94;90.94
27643;BME280;15053;48.618;10.024;2022-11-20T05:40:41;93676.16;;;3.92;91.16
27643;BME280;15053;48.618;10.024;2022-11-20T05:43:07;93677.19;;;3.91;91.22
27643;BME280;15053;48.618;10.024;2022-11-20T05:45:34;93672.31;;;3.90;90.93
27643;BME280;15053;48.618;10.024;2022-11-20T05:48:01;93674.88;;;3.90;91.12
27643;BME280;15053;48.618;10.024;2022-11-20T05:50:27;93676.91;;;3.88;90.99
27643;BME280;15053;48.618;10.024;2022-11-20T05:52:54;93671.25;;;3.86;90.78
27643;BME280;15053;48.618;10.024;2022-11-20T05:55:20;93677.44;;;3.85;91.11
27643;BME280;15053;48.618;10.024;2022-11-20T05:57:47;93680.53;;;3.87;91.02
27643;BME280;15053;48.618;10.024;2022-11-20T06:00:14;93677.69;;;3.88;90.75
27643;BME280;15053;48.618;10.024;2022-11-20T06:02:41;93677.19;;;3.86;91.29
27643;BME280;15053;48.618;10.024;2022-11-20T06:05:07;93678.22;;;3.95;91.19
27643;BME280;15053;48.618;10.024;2022-11-20T06:07:34;93683.59;;;3.99;90.94
27643;BME280;15053;48.618;10.024;2022-11-20T06:10:00;93680.78;;;4.00;91.34
27643;BME280;15053;48.618;10.024;2022-11-20T06:12:27;93682.06;;;4.03;90.99
27643;BME280;15053;48.618;10.024;2022-11-20T06:14:53;93680.50;;;4.07;91.31
27643;BME280;15053;48.618;10.024;2022-11-20T06:17:20;93685.13;;;4.10;91.26
27643;BME280;15053;48.618;10.024;2022-11-20T06:19:46;93674.84;;;4.10;90.85
27643;BME280;15053;48.618;10.024;2022-11-20T06:22:13;93676.13;;;4.12;90.86
27643;BME280;15053;48.618;10.024;2022-11-20T06:24:39;93683.31;;;4.15;91.25
27643;BME280;15053;48.618;10.024;2022-11-20T06:27:05;93672.78;;;4.17;90.88
27643;BME280;15053;48.618;10.024;2022-11-20T06:29:32;93676.88;;;4.18;90.82
27643;BME280;15053;48.618;10.024;2022-11-20T06:31:59;93675.56;;;4.21;91.17
27643;BME280;15053;48.618;10.024;2022-11-20T06:34:26;93686.16;;;4.24;91.53
27643;BME280;15053;48.618;10.024;2022-11-20T06:36:52;93683.03;;;4.27;91.37
27643;BME280;15053;48.618;10.024;2022-11-20T06:39:19;93685.88;;;4.31;91.24
27643;BME280;15053;48.618;10.024;2022-11-20T06:41:46;93667.09;;;4.20;91.06
27643;BME280;15053;48.618;10.024;2022-11-20T06:44:12;93695.41;;;4.35;91.00
27643;BME280;15053;48.618;10.024;2022-11-20T06:46:39;93698.75;;;4.36;91.10
27643;BME280;15053;48.618;10.024;2022-11-20T06:49:05;93696.41;;;4.34;91.45
27643;BME280;15053;48.618;10.024;2022-11-20T06:51:32;93700.53;;;4.40;91.15
27643;BME280;15053;48.618;10.024;2022-11-20T06:53:58;93690.72;;;4.42;90.79
27643;BME280;15053;48.618;10.024;2022-11-20T06:56:27;93700.50;;;4.45;91.25
27643;BME280;15053;48.618;10.024;2022-11-20T06:58:54;93705.16;;;4.48;91.04
27643;BME280;15053;48.618;10.024;2022-11-20T07:01:20;93698.97;;;4.49;91.67
27643;BME280;15053;48.618;10.024;2022-11-20T07:03:48;93696.91;;;4.51;90.87
27643;BME280;15053;48.618;10.024;2022-11-20T07:06:19;93703.34;;;4.54;91.80
27643;BME280;15053;48.618;10.024;2022-11-20T07:08:46;93706.94;;;4.58;91.48
27643;BME280;15053;48.618;10.024;2022-11-20T07:11:13;93707.72;;;4.58;90.63
27643;BME280;15053;48.618;10.024;2022-11-20T07:13:39;93706.66;;;4.59;91.40
27643;BME280;15053;48.618;10.024;2022-11-20T07:16:07;93708.75;;;4.57;90.72
27643;BME280;15053;48.618;10.024;2022-11-20T07:18:34;93714.91;;;4.56;90.39
27643;BME280;15053;48.618;10.024;2022-11-20T07:21:02;93718.78;;;4.59;90.27
27643;BME280;15053;48.618;10.024;2022-11-20T07:23:29;93714.69;;;4.58;90.43
27643;BME280;15053;48.618;10.024;2022-11-20T07:25:55;93706.94;;;4.58;89.94
27643;BME280;15053;48.618;10.024;2022-11-20T07:28:22;93724.72;;;4.59;89.68
27643;BME280;15053;48.618;10.024;2022-11-20T07:30:50;93715.19;;;4.60;90.06
27643;BME280;15053;48.618;10.024;2022-11-20T07:33:16;93728.56;;;4.62;90.05
27643;BME280;15053;48.618;10.024;2022-11-20T07:35:43;93720.34;;;4.60;89.95
27643;BME280;15053;48.618;10.024;2022-11-20T07:38:09;93733.72;;;4.62;89.55
27643;BME280;15053;48.618;10.024;2022-11-20T07:40:36;93727.06;;;4.61;88.95
27643;BME280;15053;48.618;10.024;2022-11-20T07:43:02;93729.34;;;4.62;89.33
27643;BME280;15053;48.618;10.024;2022-11-20T07:45:28;93729.88;;;4.59;88.89
27643;BME280;15053;48.618;10.024;2022-11-20T07:47:55;93729.09;;;4.59;89.05
27643;BME280;15053;48.618;10.024;2022-11-20T07:50:22;93722.66;;;4.61;88.95
27643;BME280;15053;48.618;10.024;2022-11-20T07:52:48;93727.81;;;4.61;89.14
27643;BME280;15053;48.618;10.024;2022-11-20T07:55:15;93723.94;;;4.59;88.10
27643;BME280;15053;48.618;10.024;2022-11-20T07:57:41;93729.66;;;4.56;87.99
27643;BME280;15053;48.618;10.024;2022-11-20T08:00:10;93738.13;;;4.56;88.35
27643;BME280;15053;48.618;10.024;2022-11-20T08:02:40;93725.53;;;4.50;88.11
27643;BME280;15053;48.618;10.024;2022-11-20T08:05:08;93733.50;;;4.48;87.71
27643;BME280;15053;48.618;10.024;2022-11-20T08:07:36;93724.50;;;4.46;88.48
27643;BME280;15053;48.618;10.024;2022-11-20T08:10:04;93734.03;;;4.45;87.29
27643;BME280;15053;48.618;10.024;2022-11-20T08:12:30;93731.22;;;4.42;88.58
27643;BME280;15053;48.618;10.024;2022-11-20T08:15:15;93743.34;;;4.41;87.78
27643;BME280;15053;48.618;10.024;2022-11-20T08:17:42;93740.25;;;4.39;88.08
27643;BME280;15053;48.618;10.024;2022-11-20T08:20:28;93749.50;;;4.45;88.25
27643;BME280;15053;48.618;10.024;2022-11-20T08:23:03;93743.03;;;4.48;88.70
27643;BME280;15053;48.618;10.024;2022-11-20T08:25:32;93739.72;;;4.47;88.42
27643;BME280;15053;48.618;10.024;2022-11-20T08:28:01;93747.94;;;4.54;87.98
27643;BME280;15053;48.618;10.024;2022-11-20T08:30:43;93745.13;;;4.56;88.22
27643;BME280;15053;48.618;10.024;2022-11-20T08:33:10;93753.06;;;4.59;88.10
27643;BME280;15053;48.618;10.024;2022-11-20T08:35:37;93743.81;;;4.63;87.28
27643;BME280;15053;48.618;10.024;2022-11-20T08:38:05;93754.63;;;4.65;87.48
27643;BME280;15053;48.618;10.024;2022-11-20T08:40:32;93756.41;;;4.65;87.22
27643;BME280;15053;48.618;10.024;2022-11-20T08:42:58;93743.78;;;4.68;86.88
27643;BME280;15053;48.618;10.024;2022-11-20T08:45:24;93740.19;;;4.69;87.19
27643;BME280;15053;48.618;10.024;2022-11-20T08:48:02;93736.28;;;4.77;87.13
27643;BME280;15053;48.618;10.024;2022-11-20T08:50:30;93745.25;;;4.90;86.94
27643;BME280;15053;48.618;10.024;2022-11-20T08:53:03;93731.59;;;4.94;87.27
27643;BME280;15053;48.618;10.024;2022-11-20T08:55:30;93742.66;;;5.00;86.33
27643;BME280;15053;48.618;10.024;2022-11-20T08:57:56;93737.50;;;5.00;87.11
27643;BME280;15053;48.618;10.024;2022-11-20T09:00:23;93750.88;;;5.07;86.45
27643;BME280;15053;48.618;10.024;2022-11-20T09:02:49;93747.22;;;5.13;86.86
27643;BME280;15053;48.618;10.024;2022-11-20T09:05:16;93743.06;;;5.17;85.74
27643;BME280;15053;48.618;10.024;2022-11-20T09:07:42;93749.50;;;5.24;86.15
27643;BME280;15053;48.618;10.024;2022-11-20T09:10:08;93752.06;;;5.29;85.85
27643;BME280;15053;48.618;10.024;2022-11-20T09:12:49;93741.00;;;5.24;85.83
27643;BME280;15053;48.618;10.024;2022-11-20T09:15:17;93738.44;;;5.19;85.72
27643;BME280;15053;48.618;10.024;2022-11-20T09:17:59;93749.25;;;5.21;85.39
27643;BME280;15053;48.618;10.024;2022-11-20T09:20:28;93749.50;;;5.19;86.53
27643;BME280;15053;48.618;10.024;2022-11-20T09:22:55;93750.81;;;5.17;86.52
27643;BME280;15053;48.618;10.024;2022-11-20T09:25:22;93748.75;;;5.14;86.21
27643;BME280;15053;48.618;10.024;2022-11-20T09:27:57;93751.13;;;5.10;86.36
27643;BME280;15053;48.618;10.024;2022-11-20T09:30:25;93751.38;;;5.09;86.54
27643;BME280;15053;48.618;10.024;2022-11-20T09:32:51;93747.25;;;5.08;86.92
27643;BME280;15053;48.618;10.024;2022-11-20T09:35:18;93738.50;;;5.04;86.65
27643;BME280;15053;48.618;10.024;2022-11-20T09:37:45;93748.28;;;5.07;86.55
27643;BME280;15053;48.618;10.024;2022-11-20T09:40:28;93744.66;;;5.13;87.52
27643;BME280;15053;48.618;10.024;2022-11-20T09:43:20;93740.28;;;5.08;87.11
27643;BME280;15053;48.618;10.024;2022-11-20T09:48:47;93753.16;;;5.18;86.79
27643;BME280;15053;48.618;10.024;2022-11-20T09:54:16;93757.25;;;5.24;87.02
27643;BME280;15053;48.618;10.024;2022-11-20T09:56:53;93755.94;;;5.27;87.68
27643;BME280;15053;48.618;10.024;2022-11-20T09:59:32;93754.66;;;5.29;87.06
27643;BME280;15053;48.618;10.024;2022-11-20T10:02:01;93754.66;;;5.29;87.20
27643;BME280;15053;48.618;10.024;2022-11-20T10:04:31;93752.31;;;5.28;87.17
27643;BME280;15053;48.618;10.024;2022-11-20T10:07:13;93754.66;;;5.29;87.08
27643;BME280;15053;48.618;10.024;2022-11-20T10:09:59;93763.41;;;5.28;87.25
27643;BME280;15053;48.618;10.024;2022-11-20T10:12:40;93763.66;;;5.32;87.03
27643;BME280;15053;48.618;10.024;2022-11-20T10:21:19;93753.09;;;5.28;86.92
27643;BME280;15053;48.618;10.024;2022-11-20T10:26:59;93745.63;;;5.27;86.45
27643;BME280;15053;48.618;10.024;2022-11-20T10:29:34;93738.88;;;5.31;86.67
27643;BME280;15053;48.618;10.024;2022-11-20T10:32:07;93741.22;;;5.32;86.71
27643;BME280;15053;48.618;10.024;2022-11-20T10:34:48;93751.25;;;5.34;86.98
27643;BME280;15053;48.618;10.024;2022-11-20T10:37:25;93745.06;;;5.35;87.33
27643;BME280;15053;48.618;10.024;2022-11-20T10:40:11;93747.66;;;5.35;86.99
27643;BME280;15053;48.618;10.024;2022-11-20T10:42:46;93749.16;;;5.36;87.38
27643;BME280;15053;48.618;10.024;2022-11-20T10:48:22;93746.59;;;5.36;87.84
27643;BME280;15053;48.618;10.024;2022-11-20T10:52:11;93755.09;;;5.36;87.56
27643;BME280;15053;48.618;10.024;2022-11-20T10:56:43;93740.91;;;5.39;88.56
27643;BME280;15053;48.618;10.024;2022-11-20T11:01:51;93748.59;;;5.49;88.49
27643;BME280;15053;48.618;10.024;2022-11-20T11:07:01;93742.13;;;5.47;88.68
27643;BME280;15053;48.618;10.024;2022-11-20T11:09:34;93740.38;;;5.42;89.93
27643;BME280;15053;48.618;10.024;2022-11-20T11:12:06;93733.69;;;5.41;89.17
27643;BME280;15053;48.618;10.024;2022-11-20T11:14:54;93730.53;;;5.44;89.19
27643;BME280;15053;48.618;10.024;2022-11-20T11:17:24;93731.81;;;5.47;89.51
27643;BME280;15053;48.618;10.024;2022-11-20T11:20:00;93726.88;;;5.50;90.28
27643;BME280;15053;48.618;10.024;2022-11-20T11:22:32;93731.81;;;5.52;90.71
27643;BME280;15053;48.618;10.024;2022-11-20T11:24:59;93717.06;;;5.52;90.22
27643;BME280;15053;48.618;10.024;2022-11-20T11:27:26;93718.06;;;5.56;90.32
27643;BME280;15053;48.618;10.024;2022-11-20T11:30:14;93716.28;;;5.57;91.08
27643;BME280;15053;48.618;10.024;2022-11-20T11:32:41;93709.75;;;5.64;91.08
27643;BME280;15053;48.618;10.024;2022-11-20T11:35:25;93712.28;;;5.69;90.75
27643;BME280;15053;48.618;10.024;2022-11-20T11:38:05;93720.53;;;5.71;91.78
27643;BME280;15053;48.618;10.024;2022-11-20T11:40:35;93716.44;;;5.70;91.60
27643;BME280;15053;48.618;10.024;2022-11-20T11:43:06;93711.81;;;5.67;91.32
27643;BME280;15053;48.618;10.024;2022-11-20T11:45:54;93705.91;;;5.62;91.97
27643;BME280;15053;48.618;10.024;2022-11-20T11:48:21;93701.50;;;5.62;91.27
27643;BME280;15053;48.618;10.024;2022-11-20T11:50:50;93711.81;;;5.67;91.99
27643;BME280;15053;48.618;10.024;2022-11-20T11:53:18;93707.66;;;5.66;92.14
27643;BME280;15053;48.618;10.024;2022-11-20T11:56:08;93720.81;;;5.70;91.36
27643;BME280;15053;48.618;10.024;2022-11-20T11:58:50;93714.63;;;5.71;92.75
27643;BME280;15053;48.618;10.024;2022-11-20T12:01:20;93706.09;;;5.70;92.01
27643;BME280;15053;48.618;10.024;2022-11-20T12:04:21;93714.09;;;5.69;91.93
27643;BME280;15053;48.618;10.024;2022-11-20T12:07:01;93707.66;;;5.66;92.47
27643;BME280;15053;48.618;10.024;2022-11-20T12:09:53;93711.59;;;5.59;92.35
27643;BME280;15053;48.618;10.024;2022-11-20T12:12:36;93709.28;;;5.57;92.33
27643;BME280;15053;48.618;10.024;2022-11-20T12:15:04;93705.94;;;5.57;92.62
27643;BME280;15053;48.618;10.024;2022-11-20T12:17:30;93704.66;;;5.54;92.56
27643;BME280;15053;48.618;10.024;2022-11-20T12:19:57;93702.59;;;5.56;92.46
27643;BME280;15053;48.618;10.024;2022-11-20T12:22:41;93698.44;;;5.60;92.43
27643;BME280;15053;48.618;10.024;2022-11-20T12:25:24;93697.41;;;5.56;93.29
27643;BME280;15053;48.618;10.024;2022-11-20T12:30:45;93689.88;;;5.65;93.55
27643;BME280;15053;48.618;10.024;2022-11-20T12:41:32;93688.44;;;5.87;93.78
27643;BME280;15053;48.618;10.024;2022-11-20T12:47:24;93689.91;;;5.93;92.68
27643;BME280;15053;48.618;10.024;2022-11-20T12:52:56;93696.03;;;6.03;93.22
27643;BME280;15053;48.618;10.024;2022-11-20T12:58:40;93703.88;;;6.21;92.98
27643;BME280;15053;48.618;10.024;2022-11-20T13:01:37;93679.28;;;6.29;91.73
27643;BME280;15053;48.618;10.024;2022-11-20T13:07:04;93671.22;;;6.54;91.47
27643;BME280;15053;48.618;10.024;2022-11-20T13:09:32;93669.09;;;6.61;90.86
27643;BME280;15053;48.618;10.024;2022-11-20T13:12:06;93676.81;;;6.85;89.85
27643;BME280;15053;48.618;10.024;2022-11-20T13:17:21;93661.25;;;7.46;87.77
27643;BME280;15053;48.618;10.024;2022-11-20T13:19:56;93665.72;;;7.59;86.49
27643;BME280;15053;48.618;10.024;2022-11-20T13:22:31;93658.81;;;7.87;85.94
27643;BME280;15053;48.618;10.024;2022-11-20T13:25:31;93662.81;;;8.11;85.21
27643;BME280;15053;48.618;10.024;2022-11-20T13:28:04;93658.66;;;7.97;84.24
27643;BME280;15053;48.618;10.024;2022-11-20T13:30:31;93664.31;;;7.85;84.62
27643;BME280;15053;48.618;10.024;2022-11-20T13:33:08;93653.88;;;7.71;84.00
27643;BME280;15053;48.618;10.024;2022-11-20T13:35:40;93649.63;;;7.62;83.87
27643;BME280;15053;48.618;10.024;2022-11-20T13:40:36;93642.66;;;7.44;82.17
27643;BME280;15053;48.618;10.024;2022-11-20T13:46:01;93652.31;;;7.20;81.81
27643;BME280;15053;48.618;10.024;2022-11-20T13:48:40;93641.03;;;7.10;81.91
27643;BME280;15053;48.618;10.024;2022-11-20T13:54:19;93646.97;;;6.92;82.94
27643;BME280;15053;48.618;10.024;2022-11-20T13:59:55;93657.84;;;6.71;82.49
27643;BME280;15053;48.618;10.024;2022-11-20T14:02:26;93662.31;;;6.65;83.05
27643;BME280;15053;48.618;10.024;2022-11-20T14:04:55;93659.78;;;6.60;83.65
27643;BME280;15053;48.618;10.024;2022-11-20T14:07:27;93663.44;;;6.59;83.75
27643;BME280;15053;48.618;10.024;2022-11-20T14:09:58;93665.97;;;6.64;82.98
27643;BME280;15053;48.618;10.024;2022-11-20T14:12:30;93659.19;;;6.68;83.51
27643;BME280;15053;48.618;10.024;2022-11-20T14:14:56;93657.13;;;6.65;83.98
27643;BME280;15053;48.618;10.024;2022-11-20T14:17:34;93650.50;;;6.59;82.83
27643;BME280;15053;48.618;10.024;2022-11-20T14:20:06;93645.72;;;6.47;82.73
27643;BME280;15053;48.618;10.024;2022-11-20T14:22:38;93646.63;;;6.33;81.93
27643;BME280;15053;48.618;10.024;2022-11-20T14:27:44;93646.34;;;6.11;81.77